Aviation Digital Data Service (ADDS)

Output produced by METARs form (1243 UTC 24 October 2014)
found at http://aviationweather.gov/adds/metars/
 
KAVL 241130Z 2412/2512 35005KT P6SM BKN170 
     FM250000 00000KT P6SM SKC 
     FM250900 34004KT 3SM BR SKC